Terminal Aerodrome Forecast
Issued by NWS

Home | Current Version | Previous Version | Text Only | Print | Product List | Glossary Off
Versions: 1 2 3 4 5 6 7 8 9 10 11 12 13 14 15 16 17 18 19 20

000
FTUS41 KCLE 011306 AAA
TAFFDY
TAF AMD
KFDY 011306Z 0113/0212 04004KT 1/2SM -DZ FG OVC002
      TEMPO 0113/0117 1 1/2SM BR OVC005
     FM011800 33005KT 3SM -RA BR OVC006
      TEMPO 0120/0124 6SM SCT006 OVC012
     FM020200 04006KT 2SM -RA BR OVC004=

USA.gov is the U.S. government's official web portal to all federal, state and local government web resources and services.